createdAt,value
2022-12-29T00:01:06.809Z,100441.44
2022-12-29T00:03:39.647Z,100434.47
2022-12-29T00:06:08.829Z,100430.41
2022-12-29T00:08:43.668Z,100429.59
2022-12-29T00:11:15.796Z,100430.41
2022-12-29T00:14:03.679Z,100427.25
2022-12-29T00:16:34.187Z,100430.75
2022-12-29T00:19:04.105Z,100425.09
2022-12-29T00:21:52.510Z,100421.69
2022-12-29T00:24:29.271Z,100422.41
2022-12-29T00:27:19.045Z,100419.31
2022-12-29T00:30:06.418Z,100415.88
2022-12-29T00:32:53.248Z,100411.75
2022-12-29T00:35:30.402Z,100410.69
2022-12-29T00:38:22.233Z,100406.91
2022-12-29T00:41:13.589Z,100409.00
2022-12-29T00:44:01.183Z,100415.03
2022-12-29T00:46:29.928Z,100410.50
2022-12-29T00:49:18.072Z,100409.00
2022-12-29T00:51:47.360Z,100405.94
2022-12-29T00:54:17.197Z,100404.34
2022-12-29T00:56:53.265Z,100411.31
2022-12-29T00:59:22.469Z,100403.47
2022-12-29T01:01:54.663Z,100402.09
2022-12-29T01:04:25.705Z,100405.94
2022-12-29T01:06:55.189Z,100394.66
2022-12-29T01:09:42.452Z,100399.19
2022-12-29T01:12:11.941Z,100384.34
2022-12-29T01:14:42.412Z,100400.16
2022-12-29T01:17:11.462Z,100389.47
2022-12-29T01:19:41.026Z,100387.44
2022-12-29T01:22:10.018Z,100385.22
2022-12-29T01:24:38.907Z,100396.94
2022-12-29T01:27:08.145Z,100396.75
2022-12-29T01:29:37.031Z,100385.84
2022-12-29T01:32:07.465Z,100385.41
2022-12-29T01:34:36.470Z,100390.50
2022-12-29T01:37:05.931Z,100389.72
2022-12-29T01:39:34.879Z,100388.38
2022-12-29T01:42:03.843Z,100389.53
2022-12-29T01:44:52.441Z,100387.66
2022-12-29T01:47:46.438Z,100391.13
2022-12-29T01:50:24.123Z,100392.34
2022-12-29T01:53:01.561Z,100398.50
2022-12-29T01:55:38.227Z,100397.28
2022-12-29T01:58:09.862Z,100391.41
2022-12-29T02:00:40.039Z,100392.06
2022-12-29T02:03:10.710Z,100404.19
2022-12-29T02:05:42.565Z,100399.06
2022-12-29T02:08:15.947Z,100402.69
2022-12-29T02:10:46.117Z,100399.94
2022-12-29T02:13:18.296Z,100404.34
2022-12-29T02:16:14.018Z,100402.56
2022-12-29T02:18:57.997Z,100400.41
2022-12-29T02:21:54.495Z,100400.56
2022-12-29T02:24:41.404Z,100400.72
2022-12-29T02:27:25.378Z,100397.91
2022-12-29T02:30:14.126Z,100388.03
2022-12-29T02:33:10.958Z,100396.81
2022-12-29T02:35:53.054Z,100394.44
2022-12-29T02:39:10.721Z,100393.56
2022-12-29T02:42:05.419Z,100394.28
2022-12-29T02:44:55.762Z,100386.81
2022-12-29T02:47:40.628Z,100398.09
2022-12-29T02:50:33.846Z,100393.88
2022-12-29T02:53:07.837Z,100401.25
2022-12-29T02:55:37.132Z,100386.34
2022-12-29T02:58:24.158Z,100389.53
2022-12-29T03:01:06.427Z,100389.53
2022-12-29T03:04:02.206Z,100387.50
2022-12-29T03:07:07.881Z,100381.25
2022-12-29T03:09:49.144Z,100369.59
2022-12-29T03:12:52.157Z,100371.50
2022-12-29T03:15:48.282Z,100362.75
2022-12-29T03:18:26.743Z,100356.38
2022-12-29T03:21:05.899Z,100356.81
2022-12-29T03:23:37.269Z,100354.38
2022-12-29T03:26:12.388Z,100359.50
2022-12-29T03:28:54.150Z,100356.81
2022-12-29T03:31:28.162Z,100355.53
2022-12-29T03:33:59.861Z,100357.94
2022-12-29T03:36:49.523Z,100357.41
2022-12-29T03:39:20.551Z,100347.22
2022-12-29T03:41:56.058Z,100353.50
2022-12-29T03:44:43.356Z,100351.16
2022-12-29T03:47:17.117Z,100351.72
2022-12-29T03:49:51.107Z,100350.16
2022-12-29T03:52:21.448Z,100349.47
2022-12-29T03:54:50.585Z,100345.31
2022-12-29T03:57:21.120Z,100341.03
2022-12-29T03:59:58.208Z,100335.34
2022-12-29T04:02:27.322Z,100332.22
2022-12-29T04:04:56.425Z,100330.19
2022-12-29T04:07:26.119Z,100327.72
2022-12-29T04:09:56.750Z,100327.13
2022-12-29T04:12:28.622Z,100323.59
2022-12-29T04:14:57.581Z,100321.63
2022-12-29T04:17:27.010Z,100318.97
2022-12-29T04:20:17.410Z,100321.47
2022-12-29T04:22:47.001Z,100314.53
2022-12-29T04:25:16.469Z,100318.59
2022-12-29T04:27:47.790Z,100317.09
2022-12-29T04:30:42.576Z,100313.19
2022-12-29T04:33:20.923Z,100312.50
2022-12-29T04:35:50.850Z,100311.53
2022-12-29T04:38:19.987Z,100307.44
2022-12-29T04:40:51.223Z,100316.25
2022-12-29T04:43:24.022Z,100313.78
2022-12-29T04:46:12.511Z,100306.28
2022-12-29T04:49:06.397Z,100301.19
2022-12-29T04:51:57.040Z,100302.16
2022-12-29T04:54:26.194Z,100310.97
2022-12-29T04:57:09.655Z,100305.28
2022-12-29T04:59:40.590Z,100307.56
2022-12-29T05:02:10.829Z,100310.19
2022-12-29T05:04:40.027Z,100307.09
2022-12-29T05:07:09.606Z,100297.88
2022-12-29T05:09:39.579Z,100301.06
2022-12-29T05:12:08.726Z,100301.78
2022-12-29T05:14:42.215Z,100296.88
2022-12-29T05:17:11.242Z,100299.53
2022-12-29T05:19:40.129Z,100298.66
2022-12-29T05:22:09.443Z,100292.13
2022-12-29T05:24:40.045Z,100289.19
2022-12-29T05:27:09.207Z,100278.63
2022-12-29T05:29:57.352Z,100283.28
2022-12-29T05:32:27.117Z,100275.78
2022-12-29T05:34:56.968Z,100276.91
2022-12-29T05:37:26.910Z,100277.59
2022-12-29T05:39:58.546Z,100278.81
2022-12-29T05:42:27.607Z,100283.09
2022-12-29T05:45:14.590Z,100280.50
2022-12-29T05:47:56.080Z,100279.13
2022-12-29T05:50:34.434Z,100276.91
2022-12-29T05:53:15.246Z,100276.25
2022-12-29T05:55:48.738Z,100279.66
2022-12-29T05:58:22.253Z,100282.97
2022-12-29T06:00:51.316Z,100264.41
2022-12-29T06:03:20.322Z,100263.25
2022-12-29T06:05:49.619Z,100274.88
2022-12-29T06:08:31.432Z,100265.72
2022-12-29T06:11:00.506Z,100280.03
2022-12-29T06:13:30.113Z,100281.91
2022-12-29T06:16:00.123Z,100277.84
2022-12-29T06:18:30.752Z,100271.81
2022-12-29T06:21:05.043Z,100286.59
2022-12-29T06:23:41.930Z,100272.88
2022-12-29T06:26:10.982Z,100280.31
2022-12-29T06:28:40.524Z,100277.22
2022-12-29T06:31:12.922Z,100268.44
2022-12-29T06:33:42.199Z,100264.44
2022-12-29T06:36:12.390Z,100267.81
2022-12-29T06:38:42.134Z,100271.66
2022-12-29T06:41:11.455Z,100263.47
2022-12-29T06:44:15.793Z,100256.59
2022-12-29T06:47:02.732Z,100252.03
2022-12-29T06:49:31.995Z,100251.88
2022-12-29T06:52:05.067Z,100239.00
2022-12-29T06:54:36.630Z,100235.53
2022-12-29T06:57:05.567Z,100225.84
2022-12-29T06:59:34.509Z,100219.63
2022-12-29T07:02:04.095Z,100222.97
2022-12-29T07:04:33.222Z,100217.00
2022-12-29T07:07:02.405Z,100220.22
2022-12-29T07:09:31.376Z,100220.41
2022-12-29T07:12:00.340Z,100229.31
2022-12-29T07:14:33.665Z,100223.53
2022-12-29T07:17:08.077Z,100218.47
2022-12-29T07:20:04.704Z,100211.81
2022-12-29T07:22:41.625Z,100212.53
2022-12-29T07:25:13.842Z,100204.84
2022-12-29T07:27:43.325Z,100202.19
2022-12-29T07:30:12.956Z,100190.44
2022-12-29T07:32:44.948Z,100187.44
2022-12-29T07:35:14.078Z,100184.97
2022-12-29T07:37:42.999Z,100177.88
2022-12-29T07:40:15.207Z,100178.47
2022-12-29T07:42:44.269Z,100168.09
2022-12-29T07:45:17.840Z,100169.84
2022-12-29T07:48:09.313Z,100168.69
2022-12-29T07:50:39.082Z,100162.03
2022-12-29T07:53:11.217Z,100163.69
2022-12-29T07:55:40.588Z,100159.72
2022-12-29T07:58:09.662Z,100151.63
2022-12-29T08:00:39.821Z,100156.41
2022-12-29T08:03:13.381Z,100147.84
2022-12-29T08:05:42.309Z,100145.91
2022-12-29T08:08:14.115Z,100131.22
2022-12-29T08:10:43.279Z,100133.97
2022-12-29T08:13:16.811Z,100123.72
2022-12-29T08:15:48.344Z,100128.03
2022-12-29T08:18:17.332Z,100119.97
2022-12-29T08:20:48.726Z,100109.13
2022-12-29T08:23:20.104Z,100104.69
2022-12-29T08:25:58.461Z,100104.69
2022-12-29T08:28:27.970Z,100099.41
2022-12-29T08:31:00.502Z,100095.09
2022-12-29T08:33:30.601Z,100088.88
2022-12-29T08:36:04.666Z,100078.44
2022-12-29T08:38:34.261Z,100074.56
2022-12-29T08:41:03.329Z,100078.31
2022-12-29T08:43:32.673Z,100075.78
2022-12-29T08:46:02.268Z,100074.41
2022-12-29T08:48:31.412Z,100077.00
2022-12-29T08:51:00.283Z,100078.44
2022-12-29T08:53:29.288Z,100075.84
2022-12-29T08:56:05.195Z,100081.78
2022-12-29T08:58:44.641Z,100080.19
2022-12-29T09:01:13.779Z,100084.38
2022-12-29T09:04:14.301Z,100084.25
2022-12-29T09:06:38.108Z,100081.34
2022-12-29T09:09:10.101Z,100077.75
2022-12-29T09:11:39.196Z,100073.84
2022-12-29T09:14:08.209Z,100072.94
2022-12-29T09:16:38.012Z,100073.91
2022-12-29T09:19:07.407Z,100065.28
2022-12-29T09:21:36.300Z,100061.13
2022-12-29T09:24:05.915Z,100064.44
2022-12-29T09:26:35.144Z,100067.16
2022-12-29T09:29:04.105Z,100060.69
2022-12-29T09:31:33.099Z,100062.56
2022-12-29T09:34:02.296Z,100058.09
2022-12-29T09:36:31.396Z,100068.78
2022-12-29T09:39:00.271Z,100069.09
2022-12-29T09:41:38.569Z,100063.06
2022-12-29T09:44:19.379Z,100064.38
2022-12-29T09:46:52.524Z,100058.78
2022-12-29T09:49:33.947Z,100069.06
2022-12-29T09:52:11.266Z,100063.44
2022-12-29T09:55:09.121Z,100063.59
2022-12-29T09:57:56.621Z,100063.06
2022-12-29T10:00:41.688Z,100062.25
2022-12-29T10:03:23.221Z,100065.75
2022-12-29T10:06:01.289Z,100063.28
2022-12-29T10:09:00.699Z,100063.34
2022-12-29T10:11:42.799Z,100074.09
2022-12-29T10:14:47.866Z,100066.31
2022-12-29T10:17:42.010Z,100069.41
2022-12-29T10:20:29.009Z,100074.84
2022-12-29T10:23:18.763Z,100068.34
2022-12-29T10:25:48.427Z,100067.75
2022-12-29T10:28:24.642Z,100066.59
2022-12-29T10:30:55.337Z,100065.44
2022-12-29T10:33:33.882Z,100052.84
2022-12-29T10:36:25.305Z,100040.44
2022-12-29T10:39:23.808Z,100046.13
2022-12-29T10:42:31.645Z,100055.84
2022-12-29T10:45:04.966Z,100074.56
2022-12-29T10:47:40.581Z,100064.44
2022-12-29T10:50:09.842Z,100074.84
2022-12-29T10:52:41.286Z,100072.31
2022-12-29T10:55:23.334Z,100068.78
2022-12-29T10:57:52.843Z,100069.09
2022-12-29T11:00:23.847Z,100070.66
2022-12-29T11:03:25.067Z,100065.28
2022-12-29T11:06:20.713Z,100051.75
2022-12-29T11:08:57.621Z,100050.50
2022-12-29T11:11:34.646Z,100051.44
2022-12-29T11:14:21.545Z,100059.94
2022-12-29T11:17:16.385Z,100046.31
2022-12-29T11:19:45.559Z,100036.91
2022-12-29T11:22:26.634Z,100038.13
2022-12-29T11:24:56.960Z,100030.38
2022-12-29T11:27:28.207Z,100019.28
2022-12-29T11:29:57.589Z,100020.03
2022-12-29T11:32:33.981Z,100021.78
2022-12-29T11:35:06.700Z,100028.41
2022-12-29T11:37:44.642Z,100021.63
2022-12-29T11:40:22.820Z,100014.59
2022-12-29T11:42:58.564Z,100014.00
2022-12-29T11:45:34.295Z,100009.47
2022-12-29T11:48:09.939Z,100015.72
2022-12-29T11:50:50.753Z,100012.69
2022-12-29T11:53:27.145Z,100003.56
2022-12-29T11:56:03.021Z,99993.41
2022-12-29T11:58:38.163Z,99985.16
2022-12-29T12:01:21.487Z,99988.91
2022-12-29T12:04:05.821Z,99989.13
2022-12-29T12:06:43.637Z,99979.16
2022-12-29T12:09:25.222Z,99969.06
2022-12-29T12:11:56.594Z,99955.59
2022-12-29T12:15:03.737Z,99944.63
2022-12-29T12:18:12.797Z,99939.22
2022-12-29T12:20:56.798Z,99926.00
2022-12-29T12:23:33.309Z,99912.63
2022-12-29T12:26:12.757Z,99913.56
2022-12-29T12:28:56.313Z,99907.31
2022-12-29T12:31:59.962Z,99887.91
2022-12-29T12:34:35.803Z,99889.47
2022-12-29T12:37:28.319Z,99883.19
2022-12-29T12:40:21.520Z,99885.34
2022-12-29T12:42:56.329Z,99881.91
2022-12-29T12:45:51.122Z,99886.09
2022-12-29T12:48:50.668Z,99875.09
2022-12-29T12:51:31.763Z,99879.44
2022-12-29T12:54:06.835Z,99876.81
2022-12-29T12:56:56.561Z,99878.13
2022-12-29T12:59:44.910Z,99874.22
2022-12-29T13:02:32.469Z,99869.81
2022-12-29T13:05:07.359Z,99859.91
2022-12-29T13:08:26.680Z,99853.59
2022-12-29T13:11:16.617Z,99856.34
2022-12-29T13:14:22.177Z,99853.19
2022-12-29T13:17:05.825Z,99856.16
2022-12-29T13:20:00.168Z,99858.63
2022-12-29T13:22:50.385Z,99855.56
2022-12-29T13:25:48.521Z,99849.03
2022-12-29T13:28:29.272Z,99839.47
2022-12-29T13:31:35.389Z,99843.47
2022-12-29T13:34:26.943Z,99835.19
2022-12-29T13:37:01.110Z,99825.41
2022-12-29T13:39:53.186Z,99817.91
2022-12-29T13:42:23.259Z,99821.75
2022-12-29T13:45:28.565Z,99818.88
2022-12-29T13:48:07.847Z,99816.94
2022-12-29T13:50:40.300Z,99807.94
2022-12-29T13:53:18.506Z,99792.72
2022-12-29T13:55:53.033Z,99795.72
2022-12-29T13:58:47.191Z,99795.03
2022-12-29T14:01:50.580Z,99795.09
2022-12-29T14:04:28.753Z,99787.22
2022-12-29T14:07:15.567Z,99788.94
2022-12-29T14:09:53.204Z,99784.53
2022-12-29T14:12:39.255Z,99779.59
2022-12-29T14:15:29.095Z,99772.25
2022-12-29T14:18:14.014Z,99773.28
2022-12-29T14:20:57.410Z,99770.16
2022-12-29T14:23:41.678Z,99767.03
2022-12-29T14:26:21.693Z,99764.00
2022-12-29T14:28:51.269Z,99760.06
2022-12-29T14:31:20.237Z,99760.81
2022-12-29T14:34:14.233Z,99756.06
2022-12-29T14:36:58.930Z,99758.50
2022-12-29T14:39:47.443Z,99756.31
2022-12-29T14:42:23.540Z,99745.28
2022-12-29T14:44:52.434Z,99740.09
2022-12-29T14:47:37.252Z,99732.38
2022-12-29T14:50:07.824Z,99725.72
2022-12-29T14:53:03.481Z,99729.78
2022-12-29T14:55:48.951Z,99720.28
2022-12-29T14:58:20.887Z,99725.56
2022-12-29T15:00:50.892Z,99732.50
2022-12-29T15:03:27.871Z,99726.47
2022-12-29T15:06:14.758Z,99723.06
2022-12-29T15:08:56.682Z,99718.00
2022-12-29T15:11:47.702Z,99704.59
2022-12-29T15:14:36.006Z,99696.63
2022-12-29T15:17:30.287Z,99694.97
2022-12-29T15:20:15.816Z,99694.16
2022-12-29T15:22:47.357Z,99685.63
2022-12-29T15:25:20.418Z,99687.19
2022-12-29T15:27:55.289Z,99693.91
2022-12-29T15:30:24.870Z,99694.53
2022-12-29T15:32:56.195Z,99699.16
2022-12-29T15:35:34.457Z,99702.16
2022-12-29T15:38:28.155Z,99693.41
2022-12-29T15:41:09.665Z,99688.00
2022-12-29T15:44:06.502Z,99681.94
2022-12-29T15:46:35.725Z,99687.84
2022-12-29T15:49:11.188Z,99678.22
2022-12-29T15:51:41.534Z,99685.59
2022-12-29T15:54:23.539Z,99691.44
2022-12-29T15:56:53.769Z,99700.03
2022-12-29T15:59:31.732Z,99692.03
2022-12-29T16:02:06.029Z,99686.69
2022-12-29T16:05:08.805Z,99685.88
2022-12-29T16:07:41.265Z,99681.56
2022-12-29T16:10:35.680Z,99678.19
2022-12-29T16:13:12.854Z,99681.78
2022-12-29T16:15:41.891Z,99689.38
2022-12-29T16:18:28.883Z,99692.59
2022-12-29T16:20:59.428Z,99700.50
2022-12-29T16:23:31.054Z,99714.53
2022-12-29T16:26:02.141Z,99709.09
2022-12-29T16:28:43.758Z,99709.13
2022-12-29T16:31:26.828Z,99724.09
2022-12-29T16:33:57.739Z,99725.44
2022-12-29T16:36:35.636Z,99725.38
2022-12-29T16:39:31.935Z,99729.59
2022-12-29T16:42:01.780Z,99724.19
2022-12-29T16:44:32.920Z,99729.25
2022-12-29T16:47:13.932Z,99712.72
2022-12-29T16:49:47.488Z,99719.50
2022-12-29T16:52:26.962Z,99725.19
2022-12-29T16:55:01.932Z,99722.75
2022-12-29T16:57:33.948Z,99729.53
2022-12-29T17:00:08.262Z,99729.94
2022-12-29T17:02:46.532Z,99729.97
2022-12-29T17:05:17.667Z,99734.13
2022-12-29T17:07:47.893Z,99746.03
2022-12-29T17:10:17.196Z,99750.34
2022-12-29T17:12:49.098Z,99757.06
2022-12-29T17:15:30.893Z,99763.53
2022-12-29T17:18:01.859Z,99766.69
2022-12-29T17:20:32.467Z,99768.25
2022-12-29T17:23:01.818Z,99770.34
2022-12-29T17:25:38.639Z,99779.41
2022-12-29T17:28:28.092Z,99789.38
2022-12-29T17:31:01.742Z,99784.13
2022-12-29T17:33:36.096Z,99790.44
2022-12-29T17:36:10.908Z,99801.78
2022-12-29T17:38:40.204Z,99808.28
2022-12-29T17:41:17.595Z,99806.22
2022-12-29T17:43:46.601Z,99820.19
2022-12-29T17:46:16.659Z,99823.63
2022-12-29T17:48:51.513Z,99824.44
2022-12-29T17:51:22.701Z,99826.03
2022-12-29T17:53:52.940Z,99837.66
2022-12-29T17:56:21.885Z,99838.19
2022-12-29T17:58:51.693Z,99839.88
2022-12-29T18:01:22.729Z,99850.50
2022-12-29T18:03:51.955Z,99858.03
2022-12-29T18:06:21.538Z,99847.38
2022-12-29T18:08:50.495Z,99844.28
2022-12-29T18:11:28.283Z,99832.63
2022-12-29T18:13:57.579Z,99842.06
2022-12-29T18:16:26.666Z,99841.16
2022-12-29T18:18:55.723Z,99845.91
2022-12-29T18:21:26.331Z,99841.22
2022-12-29T18:23:55.382Z,99826.44
2022-12-29T18:26:32.554Z,99819.34
2022-12-29T18:29:01.814Z,99817.28
2022-12-29T18:31:33.218Z,99812.25
2022-12-29T18:34:08.973Z,99814.34
2022-12-29T18:36:37.926Z,99806.81
2022-12-29T18:39:09.808Z,99811.53
2022-12-29T18:41:39.196Z,99799.28
2022-12-29T18:44:14.501Z,99798.91
2022-12-29T18:46:45.631Z,99795.84
2022-12-29T18:49:14.717Z,99801.34
2022-12-29T18:51:43.962Z,99792.75
2022-12-29T18:54:27.559Z,99799.91
2022-12-29T18:56:56.751Z,99794.53
2022-12-29T18:59:26.274Z,99790.56
2022-12-29T19:01:55.460Z,99790.41
2022-12-29T19:04:24.372Z,99787.94
2022-12-29T19:06:53.257Z,99787.56
2022-12-29T19:09:27.529Z,99788.03
2022-12-29T19:11:56.673Z,99779.31
2022-12-29T19:14:25.575Z,99770.34
2022-12-29T19:16:54.645Z,99761.28
2022-12-29T19:19:23.585Z,99748.59
2022-12-29T19:21:57.232Z,99755.69
2022-12-29T19:24:26.171Z,99744.41
2022-12-29T19:26:55.197Z,99744.03
2022-12-29T19:29:24.330Z,99740.94
2022-12-29T19:31:53.345Z,99740.03
2022-12-29T19:34:22.283Z,99738.53
2022-12-29T19:36:51.248Z,99737.78
2022-12-29T19:39:20.341Z,99729.72
2022-12-29T19:41:49.429Z,99725.38
2022-12-29T19:44:21.296Z,99713.25
2022-12-29T19:46:50.296Z,99716.97
2022-12-29T19:49:19.325Z,99724.59
2022-12-29T19:51:48.261Z,99721.16
2022-12-29T19:54:17.147Z,99724.59
2022-12-29T19:56:46.201Z,99730.06
2022-12-29T19:59:15.162Z,99726.38
2022-12-29T20:01:44.549Z,99729.16
2022-12-29T20:04:13.605Z,99731.16
2022-12-29T20:06:42.578Z,99735.44
2022-12-29T20:09:11.562Z,99735.81
2022-12-29T20:11:40.505Z,99731.06
2022-12-29T20:14:10.412Z,99734.59
2022-12-29T20:17:02.468Z,99735.00
2022-12-29T20:19:28.685Z,99733.84
2022-12-29T20:21:57.652Z,99730.72
2022-12-29T20:24:26.807Z,99729.41
2022-12-29T20:26:56.225Z,99732.84
2022-12-29T20:29:25.175Z,99734.75
2022-12-29T20:31:56.314Z,99727.81
2022-12-29T20:34:25.362Z,99724.34
2022-12-29T20:36:54.298Z,99714.50
2022-12-29T20:39:23.351Z,99709.84
2022-12-29T20:41:53.167Z,99710.63
2022-12-29T20:44:23.861Z,99715.44
2022-12-29T20:46:53.657Z,99718.59
2022-12-29T20:49:22.630Z,99710.28
2022-12-29T20:52:05.745Z,99701.22
2022-12-29T20:54:39.432Z,99694.94
2022-12-29T20:57:10.512Z,99693.34
2022-12-29T20:59:39.546Z,99691.78
2022-12-29T21:02:09.265Z,99679.53
2022-12-29T21:05:13.526Z,99684.28
2022-12-29T21:07:27.343Z,99679.94
2022-12-29T21:09:56.351Z,99678.34
2022-12-29T21:12:25.353Z,99668.09
2022-12-29T21:14:57.072Z,99667.31
2022-12-29T21:17:27.607Z,99682.28
2022-12-29T21:19:56.575Z,99682.28
2022-12-29T21:22:25.635Z,99688.59
2022-12-29T21:24:54.570Z,99690.97
2022-12-29T21:27:23.715Z,99679.91
2022-12-29T21:29:52.833Z,99674.38
2022-12-29T21:32:22.752Z,99676.78
2022-12-29T21:34:51.678Z,99683.84
2022-12-29T21:37:23.722Z,99690.97
2022-12-29T21:39:53.007Z,99686.25
2022-12-29T21:42:22.556Z,99697.31
2022-12-29T21:45:15.236Z,99690.97
2022-12-29T21:48:05.691Z,99692.56
2022-12-29T21:50:34.332Z,99698.09
2022-12-29T21:53:03.233Z,99697.31
2022-12-29T21:55:32.203Z,99697.28
2022-12-29T21:58:19.343Z,99696.50
2022-12-29T22:01:06.676Z,99697.63
2022-12-29T22:03:53.538Z,99697.97
2022-12-29T22:06:41.093Z,99697.97
2022-12-29T22:09:28.549Z,99699.22
2022-12-29T22:12:15.825Z,99700.41
2022-12-29T22:14:44.481Z,99698.81
2022-12-29T22:17:14.399Z,99689.34
2022-12-29T22:19:43.637Z,99686.13
2022-12-29T22:22:16.635Z,99686.91
2022-12-29T22:24:45.562Z,99689.34
2022-12-29T22:27:15.191Z,99686.97
2022-12-29T22:29:44.168Z,99692.91
2022-12-29T22:32:15.283Z,99694.09
2022-12-29T22:34:44.341Z,99683.75
2022-12-29T22:37:13.237Z,99687.00
2022-12-29T22:39:42.401Z,99686.97
2022-12-29T22:42:14.899Z,99680.28
2022-12-29T22:44:44.740Z,99680.25
2022-12-29T22:47:15.997Z,99672.69
2022-12-29T22:49:44.978Z,99676.63
2022-12-29T22:52:15.979Z,99673.53
2022-12-29T22:54:45.194Z,99672.78
2022-12-29T22:57:17.340Z,99664.41
2022-12-29T22:59:46.896Z,99654.66
2022-12-29T23:02:18.000Z,99658.56
2022-12-29T23:05:05.998Z,99657.81
2022-12-29T23:07:36.390Z,99649.13
2022-12-29T23:10:06.633Z,99639.66
2022-12-29T23:12:35.563Z,99646.75
2022-12-29T23:15:04.681Z,99646.75
2022-12-29T23:17:37.214Z,99641.25
2022-12-29T23:20:08.471Z,99646.75
2022-12-29T23:22:37.473Z,99664.41
2022-12-29T23:25:06.743Z,99663.31
2022-12-29T23:27:35.689Z,99665.69
2022-12-29T23:30:05.055Z,99668.03
2022-12-29T23:32:34.030Z,99662.56
2022-12-29T23:35:02.919Z,99675.13
2022-12-29T23:37:32.144Z,99674.31
2022-12-29T23:40:01.079Z,99672.72
2022-12-29T23:42:30.189Z,99673.53
2022-12-29T23:44:59.749Z,99679.03
2022-12-29T23:47:29.115Z,99686.91
2022-12-29T23:49:58.094Z,99694.00
2022-12-29T23:52:29.718Z,99695.59
2022-12-29T23:54:58.622Z,99697.97
2022-12-29T23:57:27.517Z,99695.63
